Umeoh Maru — JD3736 — position and weather

sailwx.info

Track history (hours):
 
Tides and Currents Weather Stations Pressure Air Temp Water Temp Dewpoint Dewpoint Depression Visibility Wind Speed Wind Dir Waves Ship Positions

Umeoh Maru

Last reported at 2017-Nov-17 04:28 UTC. Time now 2017-Nov-18 08:33 UTC.
Position N 34°04' E 135°04'.

Length 73 m; draft 4.6 m.

Type: Tanker. MMSI: 431005826.

Date/timePositionNaut miles runAvg speedWind from/ knotsBaromVisibWave heightAir tempDewpointWater temp
2017-Nov-17 04:28N 34°04' E 135°04'612.1
2017-Nov-17 04:00N 34°09' E 135°08'3 6.8
2017-Nov-17 03:30N 34°09' E 135°12'0 0.0
2017-Nov-17 03:00N 34°09' E 135°12'0 0.0
2017-Nov-17 02:30N 34°09' E 135°12'0 0.0
2017-Nov-17 02:00N 34°09' E 135°12'0 0.0
2017-Nov-17 01:30N 34°09' E 135°12'0 0.0
2017-Nov-17 01:00N 34°09' E 135°12'0 0.2
2017-Nov-17 00:30N 34°09' E 135°12'2 4.7
2017-Nov-17 00:00N 34°09' E 135°09'2 3.3
2017-Nov-16 23:30N 34°10' E 135°08'3 5.9
2017-Nov-16 23:01N 34°13' E 135°09'0 0.1
2017-Nov-16 22:30N 34°13' E 135°09'0 0.0
2017-Nov-16 22:00N 34°13' E 135°09'0 0.0
2017-Nov-16 21:30N 34°13' E 135°09'0 0.0
2017-Nov-16 21:00N 34°13' E 135°09'0 0.0
2017-Nov-16 20:30N 34°13' E 135°09'0 0.0
2017-Nov-16 20:00N 34°13' E 135°09'0 0.0
2017-Nov-16 19:30N 34°13' E 135°09'0 0.0
2017-Nov-16 19:00N 34°13' E 135°09'0 0.0
2017-Nov-16 18:30N 34°13' E 135°09'0 0.0
2017-Nov-16 18:00N 34°13' E 135°09'0 0.0
2017-Nov-16 17:30N 34°13' E 135°09'0 0.0
2017-Nov-16 17:00N 34°13' E 135°09'0 0.0
2017-Nov-16 16:30N 34°13' E 135°09'0 0.0
2017-Nov-16 16:00N 34°13' E 135°09'0 0.0
2017-Nov-16 15:30N 34°13' E 135°09'0 0.0
2017-Nov-16 15:00N 34°13' E 135°09'0 0.0
2017-Nov-16 14:30N 34°13' E 135°09'0 0.0
2017-Nov-16 14:00N 34°13' E 135°09'0 0.0
2017-Nov-16 13:30N 34°13' E 135°09'0 0.0
2017-Nov-16 13:00N 34°13' E 135°09'0 0.0
2017-Nov-16 12:30N 34°13' E 135°09'0 0.0
2017-Nov-16 12:00N 34°13' E 135°09'0 0.0
2017-Nov-16 11:30N 34°13' E 135°09'0 0.0
2017-Nov-16 11:00N 34°13' E 135°09'0 0.0
2017-Nov-16 10:30N 34°13' E 135°09'0 0.0
2017-Nov-16 10:00N 34°13' E 135°09'0 0.0
2017-Nov-16 09:30N 34°13' E 135°09'0 0.0
2017-Nov-16 09:00N 34°13' E 135°09'0 0.0
2017-Nov-16 08:30N 34°13' E 135°09'0 0.0
2017-Nov-16 08:00N 34°13' E 135°09'0 0.0
2017-Nov-16 07:30N 34°13' E 135°09'0 0.0
2017-Nov-16 07:00N 34°13' E 135°09'0 0.0
2017-Nov-16 06:30N 34°13' E 135°09'0 0.0
2017-Nov-16 06:00N 34°13' E 135°09'0 0.0
2017-Nov-16 05:30N 34°13' E 135°09'0 0.0
2017-Nov-16 05:00N 34°13' E 135°09'0 0.0
2017-Nov-16 04:30N 34°13' E 135°09'0 0.0
2017-Nov-16 04:00N 34°13' E 135°09'0 0.0
2017-Nov-16 03:30N 34°13' E 135°09'0 0.0
2017-Nov-16 03:00N 34°13' E 135°09'0 0.0
2017-Nov-16 02:30N 34°13' E 135°09'0 0.0
2017-Nov-16 02:00N 34°13' E 135°09'0 0.0
2017-Nov-16 01:30N 34°13' E 135°09'0 0.0
2017-Nov-16 01:00N 34°13' E 135°09'0 0.0
2017-Nov-16 00:30N 34°13' E 135°09'0 0.0
2017-Nov-16 00:00N 34°13' E 135°09'0 0.0
2017-Nov-15 23:30N 34°13' E 135°09'0 0.0
2017-Nov-15 23:00N 34°13' E 135°09'1 2.1
2017-Nov-15 22:30N 34°12' E 135°07'0 0.0
2017-Nov-15 22:00N 34°12' E 135°07'0 0.0
2017-Nov-15 21:30N 34°12' E 135°07'0 0.0
2017-Nov-15 21:00N 34°12' E 135°07'2 4.1
2017-Nov-15 20:30N 34°10' E 135°07'712.5
2017-Nov-15 19:55N 34°04' E 135°04'209 6.6
2017-Nov-14 12:24N 34°47' E 139°11'1611.8
2017-Nov-14 11:01N 34°58' E 139°26'211.6
2017-Nov-14 10:51N 34°59' E 139°28'411.9
2017-Nov-14 10:30N 35°02' E 139°32'611.8
2017-Nov-14 10:00N 35°05' E 139°38'612.3
2017-Nov-14 09:30N 35°09' E 139°43'612.7
2017-Nov-14 09:00N 35°15' E 139°46'613.0
2017-Nov-14 08:30N 35°21' E 139°42'611.6
2017-Nov-14 08:01N 35°26' E 139°45'612.5
2017-Nov-14 07:30N 35°30' E 139°51'3 0.4
2017-Nov-14 01:26N 35°31' E 139°54'3 7.6
2017-Nov-14 01:00N 35°30' E 139°50'0 0.0
2017-Nov-14 00:30N 35°30' E 139°50'0 0.0
2017-Nov-14 00:00N 35°30' E 139°50'0 0.0
2017-Nov-13 23:30N 35°30' E 139°50'0 0.0
2017-Nov-13 23:00N 35°30' E 139°50'0 0.0
2017-Nov-13 22:30N 35°30' E 139°50'0 0.0
2017-Nov-13 22:00N 35°30' E 139°50'9 0.2
2017-Nov-12 01:50N 35°33' E 140°00'512.4
2017-Nov-12 01:26N 35°31' E 139°55'512.2
2017-Nov-12 01:00N 35°27' E 139°50'612.2
2017-Nov-12 00:30N 35°23' E 139°46'611.3
2017-Nov-12 00:00N 35°17' E 139°46'611.8
2017-Nov-11 23:30N 35°11' E 139°47'611.3
2017-Nov-11 23:00N 35°06' E 139°44'611.8
2017-Nov-11 22:30N 35°02' E 139°39'611.9
2017-Nov-11 22:00N 34°58' E 139°34'18 0.6
2017-Nov-10 16:02N 34°52' E 139°12'1211.3
2017-Nov-10 14:59N 34°59' E 139°24'611.2
2017-Nov-10 14:29N 35°02' E 139°30'510.8
2017-Nov-10 14:00N 35°04' E 139°35'511.2
2017-Nov-10 13:30N 35°07' E 139°41'611.2
2017-Nov-10 13:00N 35°11' E 139°45'611.6
2017-Nov-10 12:30N 35°17' E 139°45'612.0
2017-Nov-10 12:01N 35°23' E 139°42'611.5
2017-Nov-10 11:31N 35°27' E 139°47'611.9
2017-Nov-10 11:00N 35°30' E 139°54'612.1
2017-Nov-10 10:30N 35°30' E 140°01'0 0.1
2017-Nov-10 07:06N 35°30' E 140°01'0 1.0
2017-Nov-10 06:53N 35°30' E 140°00'1 0.3
2017-Nov-10 03:25N 35°30' E 139°59'1 2.1
2017-Nov-10 02:52N 35°29' E 140°00'1 2.4
2017-Nov-10 02:29N 35°28' E 140°01'0 0.0
2017-Nov-10 02:00N 35°28' E 140°01'0 0.0
2017-Nov-10 01:12N 35°28' E 140°01'0 0.0
2017-Nov-10 00:54N 35°28' E 140°01'0 0.0
2017-Nov-10 00:25N 35°28' E 140°01'0 0.0
2017-Nov-09 23:40N 35°28' E 140°01'0 0.0
2017-Nov-09 23:26N 35°28' E 140°01'0 0.0
2017-Nov-09 22:59N 35°28' E 140°01'0 0.1
2017-Nov-09 22:22N 35°28' E 140°01'2 5.2
2017-Nov-09 22:00N 35°30' E 139°60'0 0.1
2017-Nov-09 21:26N 35°30' E 139°60'0 0.0
2017-Nov-09 21:01N 35°30' E 139°60'0 0.0
2017-Nov-09 20:31N 35°30' E 139°60'0 0.0
2017-Nov-09 20:00N 35°30' E 139°60'0 0.0
2017-Nov-09 19:30N 35°30' E 139°60'0 0.0
2017-Nov-09 19:00N 35°30' E 139°60'0 0.0
2017-Nov-09 18:30N 35°30' E 139°60'0 0.0
2017-Nov-09 18:00N 35°30' E 139°60'0 0.0
2017-Nov-09 17:24N 35°30' E 139°60'0 0.0
2017-Nov-09 17:00N 35°30' E 139°60'0 0.0
2017-Nov-09 16:28N 35°30' E 139°60'0 0.0
2017-Nov-09 16:00N 35°30' E 139°60'0 0.0
2017-Nov-09 15:26N 35°30' E 139°60'0 0.0
2017-Nov-09 14:59N 35°30' E 139°60'0 0.0
2017-Nov-09 14:30N 35°30' E 139°60'0 0.0
2017-Nov-09 14:00N 35°30' E 139°60'0 0.0
2017-Nov-09 13:30N 35°30' E 139°60'0 0.0
2017-Nov-09 13:00N 35°30' E 139°60'0 0.0
2017-Nov-09 12:31N 35°30' E 139°60'0 0.0
2017-Nov-09 12:00N 35°30' E 139°60'0 0.0
2017-Nov-09 11:30N 35°30' E 139°60'0 0.0
2017-Nov-09 11:01N 35°30' E 139°60'0 0.0
2017-Nov-09 10:30N 35°30' E 139°60'0 0.0
2017-Nov-09 10:00N 35°30' E 139°60'0 0.0
2017-Nov-09 09:30N 35°30' E 139°60'0 0.1
2017-Nov-09 09:00N 35°30' E 139°60'0 0.1
2017-Nov-09 08:30N 35°30' E 139°60'0 0.1
2017-Nov-09 08:00N 35°30' E 139°60'0 0.1
2017-Nov-09 07:30N 35°30' E 139°60'0 0.0
2017-Nov-09 07:00N 35°30' E 139°60'0 0.0
2017-Nov-09 06:30N 35°30' E 139°60'0 0.0
2017-Nov-09 06:01N 35°30' E 139°60'0 0.0
2017-Nov-09 05:30N 35°30' E 139°60'0 0.0
2017-Nov-09 05:00N 35°30' E 139°60'0 0.0
2017-Nov-09 04:30N 35°30' E 139°60'3 4.2
2017-Nov-09 03:54N 35°32' E 140°02'3 0.3
2017-Nov-08 17:38N 35°34' E 140°04'0 0.0
2017-Nov-08 17:07N 35°34' E 140°04'4 0.9
2017-Nov-08 12:46N 35°32' E 139°59'712.8
2017-Nov-08 12:15N 35°30' E 139°51'312.9
2017-Nov-08 12:00N 35°30' E 139°47'2 3.9
2017-Nov-08 11:30N 35°32' E 139°46'0 0.0
2017-Nov-08 11:00N 35°32' E 139°46'0 0.0
2017-Nov-08 10:30N 35°32' E 139°46'0 0.0
2017-Nov-08 10:00N 35°32' E 139°46'0 0.0
2017-Nov-08 09:30N 35°32' E 139°46'0 0.0
2017-Nov-08 09:00N 35°32' E 139°46'0 0.0
2017-Nov-08 08:30N 35°32' E 139°46'0 0.0
2017-Nov-08 08:00N 35°32' E 139°46'0 0.0
2017-Nov-08 07:30N 35°32' E 139°46'0 0.0
2017-Nov-08 07:00N 35°32' E 139°46'0 0.0
2017-Nov-08 06:30N 35°32' E 139°46'0 0.0
2017-Nov-08 06:00N 35°32' E 139°46'0 0.6
2017-Nov-08 05:30N 35°31' E 139°46'4 7.6
2017-Nov-08 04:57N 35°31' E 139°51'10 0.5
2017-Nov-07 10:57N 35°32' E 140°03'  
Track history (hours):
 
Tides and Currents Weather Stations Pressure Air Temp Water Temp Dewpoint Dewpoint Depression Visibility Wind Speed Wind Dir Waves Ship Positions

Umeoh Maru

Last reported at 2017-Nov-17 04:28 UTC. Time now 2017-Nov-18 08:33 UTC.
Position N 34°04' E 135°04'.

Length 73 m; draft 4.6 m.

Type: Tanker. MMSI: 431005826.

Date/timePositionNaut miles runAvg speedWind from/ knotsBaromVisibWave heightAir tempDewpointWater temp
2017-Nov-17 04:28N 34°04' E 135°04'612.1
2017-Nov-17 04:00N 34°09' E 135°08'3 6.8
2017-Nov-17 03:30N 34°09' E 135°12'0 0.0
2017-Nov-17 03:00N 34°09' E 135°12'0 0.0
2017-Nov-17 02:30N 34°09' E 135°12'0 0.0
2017-Nov-17 02:00N 34°09' E 135°12'0 0.0
2017-Nov-17 01:30N 34°09' E 135°12'0 0.0
2017-Nov-17 01:00N 34°09' E 135°12'0 0.2
2017-Nov-17 00:30N 34°09' E 135°12'2 4.7
2017-Nov-17 00:00N 34°09' E 135°09'2 3.3
2017-Nov-16 23:30N 34°10' E 135°08'3 5.9
2017-Nov-16 23:01N 34°13' E 135°09'0 0.1
2017-Nov-16 22:30N 34°13' E 135°09'0 0.0
2017-Nov-16 22:00N 34°13' E 135°09'0 0.0
2017-Nov-16 21:30N 34°13' E 135°09'0 0.0
2017-Nov-16 21:00N 34°13' E 135°09'0 0.0
2017-Nov-16 20:30N 34°13' E 135°09'0 0.0
2017-Nov-16 20:00N 34°13' E 135°09'0 0.0
2017-Nov-16 19:30N 34°13' E 135°09'0 0.0
2017-Nov-16 19:00N 34°13' E 135°09'0 0.0
2017-Nov-16 18:30N 34°13' E 135°09'0 0.0
2017-Nov-16 18:00N 34°13' E 135°09'0 0.0
2017-Nov-16 17:30N 34°13' E 135°09'0 0.0
2017-Nov-16 17:00N 34°13' E 135°09'0 0.0
2017-Nov-16 16:30N 34°13' E 135°09'0 0.0
2017-Nov-16 16:00N 34°13' E 135°09'0 0.0
2017-Nov-16 15:30N 34°13' E 135°09'0 0.0
2017-Nov-16 15:00N 34°13' E 135°09'0 0.0
2017-Nov-16 14:30N 34°13' E 135°09'0 0.0
2017-Nov-16 14:00N 34°13' E 135°09'0 0.0
2017-Nov-16 13:30N 34°13' E 135°09'0 0.0
2017-Nov-16 13:00N 34°13' E 135°09'0 0.0
2017-Nov-16 12:30N 34°13' E 135°09'0 0.0
2017-Nov-16 12:00N 34°13' E 135°09'0 0.0
2017-Nov-16 11:30N 34°13' E 135°09'0 0.0
2017-Nov-16 11:00N 34°13' E 135°09'0 0.0
2017-Nov-16 10:30N 34°13' E 135°09'0 0.0
2017-Nov-16 10:00N 34°13' E 135°09'0 0.0
2017-Nov-16 09:30N 34°13' E 135°09'0 0.0
2017-Nov-16 09:00N 34°13' E 135°09'0 0.0
2017-Nov-16 08:30N 34°13' E 135°09'0 0.0
2017-Nov-16 08:00N 34°13' E 135°09'0 0.0
2017-Nov-16 07:30N 34°13' E 135°09'0 0.0
2017-Nov-16 07:00N 34°13' E 135°09'0 0.0
2017-Nov-16 06:30N 34°13' E 135°09'0 0.0
2017-Nov-16 06:00N 34°13' E 135°09'0 0.0
2017-Nov-16 05:30N 34°13' E 135°09'0 0.0
2017-Nov-16 05:00N 34°13' E 135°09'0 0.0
2017-Nov-16 04:30N 34°13' E 135°09'0 0.0
2017-Nov-16 04:00N 34°13' E 135°09'0 0.0
2017-Nov-16 03:30N 34°13' E 135°09'0 0.0
2017-Nov-16 03:00N 34°13' E 135°09'0 0.0
2017-Nov-16 02:30N 34°13' E 135°09'0 0.0
2017-Nov-16 02:00N 34°13' E 135°09'0 0.0
2017-Nov-16 01:30N 34°13' E 135°09'0 0.0
2017-Nov-16 01:00N 34°13' E 135°09'0 0.0
2017-Nov-16 00:30N 34°13' E 135°09'0 0.0
2017-Nov-16 00:00N 34°13' E 135°09'0 0.0
2017-Nov-15 23:30N 34°13' E 135°09'0 0.0
2017-Nov-15 23:00N 34°13' E 135°09'1 2.1
2017-Nov-15 22:30N 34°12' E 135°07'0 0.0
2017-Nov-15 22:00N 34°12' E 135°07'0 0.0
2017-Nov-15 21:30N 34°12' E 135°07'0 0.0
2017-Nov-15 21:00N 34°12' E 135°07'2 4.1
2017-Nov-15 20:30N 34°10' E 135°07'712.5
2017-Nov-15 19:55N 34°04' E 135°04'209 6.6
2017-Nov-14 12:24N 34°47' E 139°11'1611.8
2017-Nov-14 11:01N 34°58' E 139°26'211.6
2017-Nov-14 10:51N 34°59' E 139°28'411.9
2017-Nov-14 10:30N 35°02' E 139°32'611.8
2017-Nov-14 10:00N 35°05' E 139°38'612.3
2017-Nov-14 09:30N 35°09' E 139°43'612.7
2017-Nov-14 09:00N 35°15' E 139°46'613.0
2017-Nov-14 08:30N 35°21' E 139°42'611.6
2017-Nov-14 08:01N 35°26' E 139°45'612.5
2017-Nov-14 07:30N 35°30' E 139°51'3 0.4
2017-Nov-14 01:26N 35°31' E 139°54'3 7.6
2017-Nov-14 01:00N 35°30' E 139°50'0 0.0
2017-Nov-14 00:30N 35°30' E 139°50'0 0.0
2017-Nov-14 00:00N 35°30' E 139°50'0 0.0
2017-Nov-13 23:30N 35°30' E 139°50'0 0.0
2017-Nov-13 23:00N 35°30' E 139°50'0 0.0
2017-Nov-13 22:30N 35°30' E 139°50'0 0.0
2017-Nov-13 22:00N 35°30' E 139°50'9 0.2
2017-Nov-12 01:50N 35°33' E 140°00'512.4
2017-Nov-12 01:26N 35°31' E 139°55'512.2
2017-Nov-12 01:00N 35°27' E 139°50'612.2
2017-Nov-12 00:30N 35°23' E 139°46'611.3
2017-Nov-12 00:00N 35°17' E 139°46'611.8
2017-Nov-11 23:30N 35°11' E 139°47'611.3
2017-Nov-11 23:00N 35°06' E 139°44'611.8
2017-Nov-11 22:30N 35°02' E 139°39'611.9
2017-Nov-11 22:00N 34°58' E 139°34'18 0.6
2017-Nov-10 16:02N 34°52' E 139°12'1211.3
2017-Nov-10 14:59N 34°59' E 139°24'611.2
2017-Nov-10 14:29N 35°02' E 139°30'510.8
2017-Nov-10 14:00N 35°04' E 139°35'511.2
2017-Nov-10 13:30N 35°07' E 139°41'611.2
2017-Nov-10 13:00N 35°11' E 139°45'611.6
2017-Nov-10 12:30N 35°17' E 139°45'612.0
2017-Nov-10 12:01N 35°23' E 139°42'611.5
2017-Nov-10 11:31N 35°27' E 139°47'611.9
2017-Nov-10 11:00N 35°30' E 139°54'612.1
2017-Nov-10 10:30N 35°30' E 140°01'0 0.1
2017-Nov-10 07:06N 35°30' E 140°01'0 1.0
2017-Nov-10 06:53N 35°30' E 140°00'1 0.3
2017-Nov-10 03:25N 35°30' E 139°59'1 2.1
2017-Nov-10 02:52N 35°29' E 140°00'1 2.4
2017-Nov-10 02:29N 35°28' E 140°01'0 0.0
2017-Nov-10 02:00N 35°28' E 140°01'0 0.0
2017-Nov-10 01:12N 35°28' E 140°01'0 0.0
2017-Nov-10 00:54N 35°28' E 140°01'0 0.0
2017-Nov-10 00:25N 35°28' E 140°01'0 0.0
2017-Nov-09 23:40N 35°28' E 140°01'0 0.0
2017-Nov-09 23:26N 35°28' E 140°01'0 0.0
2017-Nov-09 22:59N 35°28' E 140°01'0 0.1
2017-Nov-09 22:22N 35°28' E 140°01'2 5.2
2017-Nov-09 22:00N 35°30' E 139°60'0 0.1
2017-Nov-09 21:26N 35°30' E 139°60'0 0.0
2017-Nov-09 21:01N 35°30' E 139°60'0 0.0
2017-Nov-09 20:31N 35°30' E 139°60'0 0.0
2017-Nov-09 20:00N 35°30' E 139°60'0 0.0
2017-Nov-09 19:30N 35°30' E 139°60'0 0.0
2017-Nov-09 19:00N 35°30' E 139°60'0 0.0
2017-Nov-09 18:30N 35°30' E 139°60'0 0.0
2017-Nov-09 18:00N 35°30' E 139°60'0 0.0
2017-Nov-09 17:24N 35°30' E 139°60'0 0.0
2017-Nov-09 17:00N 35°30' E 139°60'0 0.0
2017-Nov-09 16:28N 35°30' E 139°60'0 0.0
2017-Nov-09 16:00N 35°30' E 139°60'0 0.0
2017-Nov-09 15:26N 35°30' E 139°60'0 0.0
2017-Nov-09 14:59N 35°30' E 139°60'0 0.0
2017-Nov-09 14:30N 35°30' E 139°60'0 0.0
2017-Nov-09 14:00N 35°30' E 139°60'0 0.0
2017-Nov-09 13:30N 35°30' E 139°60'0 0.0
2017-Nov-09 13:00N 35°30' E 139°60'0 0.0
2017-Nov-09 12:31N 35°30' E 139°60'0 0.0
2017-Nov-09 12:00N 35°30' E 139°60'0 0.0
2017-Nov-09 11:30N 35°30' E 139°60'0 0.0
2017-Nov-09 11:01N 35°30' E 139°60'0 0.0
2017-Nov-09 10:30N 35°30' E 139°60'0 0.0
2017-Nov-09 10:00N 35°30' E 139°60'0 0.0
2017-Nov-09 09:30N 35°30' E 139°60'0 0.1
2017-Nov-09 09:00N 35°30' E 139°60'0 0.1
2017-Nov-09 08:30N 35°30' E 139°60'0 0.1
2017-Nov-09 08:00N 35°30' E 139°60'0 0.1
2017-Nov-09 07:30N 35°30' E 139°60'0 0.0
2017-Nov-09 07:00N 35°30' E 139°60'0 0.0
2017-Nov-09 06:30N 35°30' E 139°60'0 0.0
2017-Nov-09 06:01N 35°30' E 139°60'0 0.0
2017-Nov-09 05:30N 35°30' E 139°60'0 0.0
2017-Nov-09 05:00N 35°30' E 139°60'0 0.0
2017-Nov-09 04:30N 35°30' E 139°60'3 4.2
2017-Nov-09 03:54N 35°32' E 140°02'3 0.3
2017-Nov-08 17:38N 35°34' E 140°04'0 0.0
2017-Nov-08 17:07N 35°34' E 140°04'4 0.9
2017-Nov-08 12:46N 35°32' E 139°59'712.8
2017-Nov-08 12:15N 35°30' E 139°51'312.9
2017-Nov-08 12:00N 35°30' E 139°47'2 3.9
2017-Nov-08 11:30N 35°32' E 139°46'0 0.0
2017-Nov-08 11:00N 35°32' E 139°46'0 0.0
2017-Nov-08 10:30N 35°32' E 139°46'0 0.0
2017-Nov-08 10:00N 35°32' E 139°46'0 0.0
2017-Nov-08 09:30N 35°32' E 139°46'0 0.0
2017-Nov-08 09:00N 35°32' E 139°46'0 0.0
2017-Nov-08 08:30N 35°32' E 139°46'0 0.0
2017-Nov-08 08:00N 35°32' E 139°46'0 0.0
2017-Nov-08 07:30N 35°32' E 139°46'0 0.0
2017-Nov-08 07:00N 35°32' E 139°46'0 0.0
2017-Nov-08 06:30N 35°32' E 139°46'0 0.0
2017-Nov-08 06:00N 35°32' E 139°46'0 0.6
2017-Nov-08 05:30N 35°31' E 139°46'4 7.6
2017-Nov-08 04:57N 35°31' E 139°51'10 0.5
2017-Nov-07 10:57N 35°32' E 140°03'  

Dump ship's entire track history